Time;durP1;ratioP1;P1;durP2;ratioP2;P2;SDS_P1;SDS_P2;PMS_P1;PMS_P2;Temp;Humidity;BMP_temperature;BMP_pressure;BME280_temperature;BME280_humidity;BME280_pressure;Samples;Min_cycle;Max_cycle;Signal;HPM_P1;HPM_P2
2023/02/17 13:17:37;;;;;;;1.30;0.80;;;;;;;13.16;72.72;97339.28;2088978;28;21031;-60
2023/02/17 13:18:42;;;;;;;1.30;0.70;;;;;;;13.54;71.85;97349.88;2083876;28;20224;-59
2023/02/17 13:19:44;;;;;;;9.38;1.05;;;;;;;13.63;71.00;97345.97;2075727;28;20202;-60
2023/02/17 13:20:55;;;;;;;3.55;0.90;;;;;;;13.79;70.75;97342.63;2074631;28;20628;-60
2023/02/17 13:22:01;;;;;;;4.60;1.15;;;;;;;14.15;69.58;97336.59;2075800;28;20204;-60
2023/02/17 13:23:06;;;;;;;1.85;0.77;;;;;;;14.08;69.31;97336.03;2076446;28;20336;-60
2023/02/17 13:24:29;;;;;;;1.27;0.75;;;;;;;14.29;69.26;97341.16;2075266;28;20221;-60
2023/02/17 13:25:33;;;;;;;1.10;0.65;;;;;;;14.20;69.12;97345.09;2073830;28;20548;-62
2023/02/17 13:26:39;;;;;;;2.10;0.82;;;;;;;14.41;68.92;97337.94;2075529;28;20221;-62
2023/02/17 13:27:41;;;;;;;1.30;0.70;;;;;;;14.78;67.67;97340.53;2075719;28;20197;-62
2023/02/17 13:28:43;;;;;;;1.15;0.73;;;;;;;14.45;67.92;97330.75;2075471;28;20236;-62
2023/02/17 13:29:45;;;;;;;2.10;0.88;;;;;;;14.66;67.83;97342.84;2077481;28;20193;-62
2023/02/17 13:30:50;;;;;;;3.15;0.80;;;;;;;14.69;67.74;97334.81;2078054;28;20252;-62
2023/02/17 13:31:59;;;;;;;2.00;0.75;;;;;;;14.58;67.83;97334.47;2075226;28;20204;-62
2023/02/17 13:33:20;;;;;;;1.55;0.70;;;;;;;14.35;68.45;97335.63;2075834;28;20202;-62
2023/02/17 13:34:37;;;;;;;1.25;0.75;;;;;;;14.21;68.66;97331.88;2062495;28;20644;-61
2023/02/17 13:35:40;;;;;;;1.17;0.68;;;;;;;14.18;69.08;97341.69;2069624;28;20201;-62
2023/02/17 13:36:41;;;;;;;1.50;0.80;;;;;;;14.47;68.54;97344.66;2069781;28;20244;-61
2023/02/17 13:37:45;;;;;;;1.10;0.60;;;;;;;14.57;68.14;97355.59;2068776;28;20226;-61
2023/02/17 13:38:55;;;;;;;1.40;0.70;;;;;;;14.58;67.91;97338.88;2072895;28;20248;-61
2023/02/17 13:39:58;;;;;;;1.00;0.60;;;;;;;14.91;67.60;97339.00;2076841;28;20206;-62
2023/02/17 13:41:04;;;;;;;1.67;0.73;;;;;;;14.83;67.75;97334.13;2076616;28;20262;-61
2023/02/17 13:42:32;;;;;;;1.30;0.80;;;;;;;14.57;67.81;97330.13;2076144;28;20618;-61
2023/02/17 13:43:40;;;;;;;1.88;0.70;;;;;;;13.98;69.16;97325.13;2075817;28;20224;-62
2023/02/17 13:44:43;;;;;;;1.30;0.70;;;;;;;13.67;70.16;97337.03;2077493;28;20239;-62
2023/02/17 13:46:02;;;;;;;1.52;0.70;;;;;;;13.70;70.55;97333.44;2077555;28;21145;-61
2023/02/17 13:47:20;;;;;;;6.05;0.85;;;;;;;13.91;70.59;97338.59;2076279;28;20197;-61
2023/02/17 13:48:25;;;;;;;2.63;0.70;;;;;;;13.71;70.03;97317.63;2075493;28;20235;-61
2023/02/17 13:49:31;;;;;;;1.17;0.63;;;;;;;14.01;69.58;97332.81;2073454;28;20201;-61
2023/02/17 13:50:35;;;;;;;1.40;0.68;;;;;;;13.80;70.26;97331.22;2076775;28;20201;-59
2023/02/17 13:51:36;;;;;;;2.20;0.70;;;;;;;14.01;70.21;97337.25;2076051;28;20703;-59
2023/02/17 13:52:42;;;;;;;1.10;0.70;;;;;;;14.00;69.89;97340.78;2077605;28;20200;-59
2023/02/17 13:53:48;;;;;;;1.00;0.60;;;;;;;13.68;70.40;97325.63;2075141;28;20225;-59
2023/02/17 13:54:58;;;;;;;1.40;0.70;;;;;;;13.54;71.25;97335.91;2073199;28;20292;-59
2023/02/17 13:56:05;;;;;;;1.45;0.88;;;;;;;13.92;70.08;97335.06;2075381;28;20431;-59
2023/02/17 13:57:21;;;;;;;1.45;0.77;;;;;;;13.97;70.01;97341.78;2075044;28;20210;-59
2023/02/17 13:58:28;;;;;;;1.48;0.60;;;;;;;13.84;69.90;97335.41;2075503;28;20288;-59
2023/02/17 13:59:30;;;;;;;1.60;0.88;;;;;;;14.11;69.51;97332.41;2075456;28;20201;-59
2023/02/17 14:00:31;;;;;;;1.42;0.90;;;;;;;14.19;69.08;97325.00;2076285;28;20236;-60
2023/02/17 14:01:36;;;;;;;2.15;0.77;;;;;;;14.59;67.80;97332.69;2077693;28;20240;-59
2023/02/17 14:02:47;;;;;;;2.08;0.90;;;;;;;14.65;67.59;97332.41;2076508;28;20281;-60
2023/02/17 14:03:51;;;;;;;1.38;0.70;;;;;;;14.53;67.52;97325.97;2073868;28;20236;-59
2023/02/17 14:04:53;;;;;;;1.10;0.63;;;;;;;14.23;68.57;97325.69;2075762;28;20189;-59
2023/02/17 14:05:58;;;;;;;2.45;0.80;;;;;;;14.08;69.25;97333.41;2074210;28;20205;-60
2023/02/17 14:07:03;;;;;;;3.35;0.95;;;;;;;13.83;70.08;97321.44;2073368;28;20190;-59
2023/02/17 14:08:26;;;;;;;2.28;0.70;;;;;;;13.70;70.50;97333.44;2075538;28;20540;-60
2023/02/17 14:09:30;;;;;;;17.63;7.85;;;;;;;13.50;71.05;97334.34;2075880;28;20217;-60
2023/02/17 14:10:32;;;;;;;6.88;4.10;;;;;;;13.43;71.59;97338.16;2075040;28;20198;-59
2023/02/17 14:11:34;;;;;;;1.83;0.90;;;;;;;13.22;72.07;97338.19;2075883;28;20568;-59
2023/02/17 14:12:36;;;;;;;1.85;0.80;;;;;;;13.18;72.43;97320.84;2075249;28;20197;-60
2023/02/17 14:13:41;;;;;;;2.38;0.80;;;;;;;13.27;72.48;97332.72;2073287;28;20218;-60
2023/02/17 14:14:42;;;;;;;1.40;0.75;;;;;;;13.11;72.34;97320.28;2073612;28;20660;-59
2023/02/17 14:15:56;;;;;;;3.28;0.70;;;;;;;13.14;72.56;97322.78;2074356;28;20224;-60
2023/02/17 14:17:07;;;;;;;1.10;0.60;;;;;;;13.16;72.66;97320.09;2072525;28;20252;-59
2023/02/17 14:18:13;;;;;;;1.40;0.68;;;;;;;13.13;72.89;97321.09;2076200;28;20204;-59
2023/02/17 14:19:18;;;;;;;2.00;1.00;;;;;;;13.03;73.06;97327.66;2073739;28;20253;-59
2023/02/17 14:20:31;;;;;;;1.35;0.70;;;;;;;12.90;73.22;97311.59;2074911;28;20645;-59
2023/02/17 14:21:37;;;;;;;1.73;0.70;;;;;;;12.97;73.57;97322.66;2076027;28;20240;-59
2023/02/17 14:22:39;;;;;;;2.90;0.77;;;;;;;13.05;73.38;97318.78;2075221;28;20517;-59
2023/02/17 14:23:51;;;;;;;1.20;0.60;;;;;;;13.06;73.35;97320.50;2073312;28;20860;-59
2023/02/17 14:25:06;;;;;;;1.63;0.70;;;;;;;13.04;73.25;97309.22;2075105;28;20747;-59
2023/02/17 14:26:13;;;;;;;2.55;0.63;;;;;;;12.88;73.59;97316.91;2074421;28;20196;-59
2023/02/17 14:27:14;;;;;;;1.73;0.80;;;;;;;12.93;73.60;97321.94;2075027;28;20194;-59
2023/02/17 14:28:17;;;;;;;1.10;0.60;;;;;;;12.83;73.78;97320.66;2070011;28;20199;-59
2023/02/17 14:29:19;;;;;;;1.52;0.70;;;;;;;12.92;73.76;97328.09;2069113;28;20202;-58
2023/02/17 14:30:36;;;;;;;1.63;0.80;;;;;;;12.92;73.63;97328.09;2069053;28;20677;-59
2023/02/17 14:31:37;;;;;;;2.05;0.80;;;;;;;12.82;73.48;97330.25;2070864;28;20213;-59
2023/02/17 14:32:39;;;;;;;1.73;0.60;;;;;;;12.84;73.68;97322.34;2069831;28;20205;-61
2023/02/17 14:34:00;;;;;;;1.70;0.75;;;;;;;12.89;73.78;97328.25;2070807;28;20249;-61
2023/02/17 14:35:10;;;;;;;2.60;0.80;;;;;;;13.02;73.02;97337.28;2070375;28;20285;-61
2023/02/17 14:36:12;;;;;;;1.20;0.60;;;;;;;13.13;73.00;97325.44;2069266;28;20210;-61
2023/02/17 14:37:21;;;;;;;2.38;0.85;;;;;;;13.19;72.43;97325.19;2068905;28;20360;-61
2023/02/17 14:38:36;;;;;;;1.33;0.60;;;;;;;13.23;72.45;97322.38;2068108;28;20578;-61
2023/02/17 14:39:37;;;;;;;1.42;0.80;;;;;;;13.28;72.23;97323.94;2069816;28;20225;-61
2023/02/17 14:40:39;;;;;;;1.10;0.50;;;;;;;13.30;72.32;97319.47;2069278;28;20240;-61
2023/02/17 14:41:41;;;;;;;1.45;0.70;;;;;;;13.57;71.55;97327.88;2068162;28;20301;-61
2023/02/17 14:42:43;;;;;;;1.30;0.70;;;;;;;13.77;70.60;97320.88;2069557;28;20328;-61
2023/02/17 14:43:45;;;;;;;1.00;0.60;;;;;;;13.34;71.96;97315.78;2069462;28;20249;-61
2023/02/17 14:44:47;;;;;;;1.60;0.80;;;;;;;13.39;71.89;97314.72;2071444;28;20198;-61
2023/02/17 14:45:49;;;;;;;1.98;0.80;;;;;;;13.14;72.30;97306.19;2071503;28;20198;-62
2023/02/17 14:46:50;;;;;;;1.38;0.60;;;;;;;13.15;73.10;97311.34;2071602;28;20213;-61
2023/02/17 14:47:52;;;;;;;2.55;0.70;;;;;;;13.04;72.96;97318.88;2072075;28;20774;-59
2023/02/17 14:48:53;;;;;;;1.35;0.70;;;;;;;13.36;72.46;97319.22;2067502;28;20222;-59
2023/02/17 14:49:55;;;;;;;1.63;0.60;;;;;;;13.40;72.01;97331.28;2069283;28;20210;-59
2023/02/17 14:50:56;;;;;;;2.25;0.70;;;;;;;13.19;72.60;97315.56;2069173;28;20199;-59
2023/02/17 14:51:58;;;;;;;1.50;0.80;;;;;;;13.75;71.13;97312.22;2069461;28;20206;-60
2023/02/17 14:52:59;;;;;;;1.33;0.70;;;;;;;13.87;70.66;97317.72;2067078;28;20213;-59
2023/02/17 14:54:15;;;;;;;2.35;0.90;;;;;;;13.82;70.80;97321.50;2068991;28;20249;-59
2023/02/17 14:55:29;;;;;;;1.20;0.63;;;;;;;13.59;71.33;97322.59;2070128;28;20590;-60
2023/02/17 14:56:35;;;;;;;1.60;0.80;;;;;;;13.46;71.90;97325.75;2069313;28;20201;-60
2023/02/17 14:57:36;;;;;;;5.75;1.00;;;;;;;13.35;72.31;97323.59;2069295;28;20214;-60
2023/02/17 14:58:38;;;;;;;1.58;0.70;;;;;;;13.39;71.90;97325.19;2069234;28;20275;-59
2023/02/17 14:59:40;;;;;;;2.28;0.90;;;;;;;13.10;72.43;97291.50;2071974;28;20328;-59
2023/02/17 15:00:42;;;;;;;4.82;0.80;;;;;;;13.53;71.86;97329.81;2071847;28;20231;-60
2023/02/17 15:01:43;;;;;;;1.10;0.80;;;;;;;13.51;71.02;97326.41;2069469;28;20251;-59
2023/02/17 15:02:45;;;;;;;3.38;1.00;;;;;;;13.09;72.50;97319.53;2069786;28;20198;-60
2023/02/17 15:03:47;;;;;;;4.80;1.13;;;;;;;13.08;72.80;97317.81;2070071;28;20723;-59
2023/02/17 15:04:49;;;;;;;2.40;0.98;;;;;;;13.00;73.29;97328.63;2069922;28;20221;-59
2023/02/17 15:05:51;;;;;;;3.72;0.98;;;;;;;12.78;73.54;97318.22;2068816;28;20260;-59
2023/02/17 15:06:53;;;;;;;1.60;1.05;;;;;;;12.66;73.97;97327.47;2069953;28;20205;-60
2023/02/17 15:07:55;;;;;;;2.13;0.88;;;;;;;12.67;74.12;97321.31;2069875;28;20194;-59
2023/02/17 15:08:56;;;;;;;2.75;1.05;;;;;;;12.60;74.27;97314.63;2069447;28;20249;-60
2023/02/17 15:09:57;;;;;;;1.73;1.00;;;;;;;12.88;73.57;97322.13;2069003;28;20233;-59
2023/02/17 15:11:00;;;;;;;2.60;1.20;;;;;;;13.00;73.08;97312.03;2067913;28;20289;-59
2023/02/17 15:12:04;;;;;;;2.13;1.20;;;;;;;13.55;71.25;97304.34;2068863;28;20206;-59
2023/02/17 15:13:08;;;;;;;2.15;1.00;;;;;;;13.30;71.84;97304.56;2068682;28;20209;-59
2023/02/17 15:14:15;;;;;;;2.47;1.23;;;;;;;13.45;71.57;97304.84;2065926;28;20217;-59
2023/02/17 15:15:17;;;;;;;2.83;0.90;;;;;;;13.43;71.19;97293.56;2070046;28;20204;-59
2023/02/17 15:16:18;;;;;;;1.55;0.95;;;;;;;13.88;69.85;97300.22;2069108;28;20228;-60
2023/02/17 15:17:20;;;;;;;3.30;1.15;;;;;;;13.21;71.45;97305.00;2069669;28;20217;-59
2023/02/17 15:18:22;;;;;;;3.10;1.15;;;;;;;13.10;72.15;97299.38;2070314;28;20213;-59
2023/02/17 15:19:23;;;;;;;4.13;1.13;;;;;;;13.45;71.32;97304.84;2071377;28;20818;-59
2023/02/17 15:20:24;;;;;;;2.22;1.40;;;;;;;13.47;71.10;97306.47;2069834;28;20198;-59
2023/02/17 15:21:29;;;;;;;5.22;1.42;;;;;;;13.65;70.26;97310.03;2068308;28;20660;-59
2023/02/17 15:22:31;;;;;;;1.70;0.90;;;;;;;13.01;71.88;97303.25;2068062;28;20203;-59
2023/02/17 15:23:33;;;;;;;2.55;1.27;;;;;;;12.89;72.63;97307.28;2066430;28;20581;-59
2023/02/17 15:24:35;;;;;;;7.72;1.45;;;;;;;12.86;73.05;97310.03;2067005;28;20201;-61
2023/02/17 15:25:36;;;;;;;3.40;1.60;;;;;;;13.33;71.87;97298.34;2071815;28;20202;-61
2023/02/17 15:26:38;;;;;;;3.95;1.20;;;;;;;13.19;71.45;97298.97;2070498;28;20208;-62
2023/02/17 15:27:40;;;;;;;2.78;1.27;;;;;;;13.23;71.76;97308.41;2067832;28;20207;-61
2023/02/17 15:28:41;;;;;;;3.05;1.35;;;;;;;12.50;72.63;97259.13;2069463;28;20592;-61
2023/02/17 15:29:42;;;;;;;3.28;1.05;;;;;;;12.22;74.20;97272.53;2067953;28;20592;-61
2023/02/17 15:30:51;;;;;;;1.55;1.05;;;;;;;12.27;74.87;97288.06;2070050;28;20317;-58
2023/02/17 15:31:55;;;;;;;3.20;1.30;;;;;;;12.29;75.35;97297.56;2070699;28;20543;-58
2023/02/17 15:32:57;;;;;;;2.90;1.05;;;;;;;12.14;75.33;97274.59;2067329;28;20687;-58
2023/02/17 15:33:59;;;;;;;1.92;1.10;;;;;;;12.08;75.66;97288.81;2068562;28;20764;-58
2023/02/17 15:35:01;;;;;;;2.53;1.42;;;;;;;12.03;76.08;97293.38;2068755;28;20205;-59
2023/02/17 15:36:03;;;;;;;5.38;1.52;;;;;;;12.00;76.50;97296.09;2069679;28;20558;-59
2023/02/17 15:37:04;;;;;;;4.13;1.60;;;;;;;11.74;76.68;97297.97;2070355;28;20206;-58
2023/02/17 15:38:11;;;;;;;3.33;1.20;;;;;;;11.74;77.46;97297.97;2069506;28;20215;-58
2023/02/17 15:39:17;;;;;;;3.00;1.50;;;;;;;11.73;77.68;97301.50;2068053;28;20233;-58
2023/02/17 15:40:22;;;;;;;4.80;1.25;;;;;;;11.63;77.73;97303.63;2068548;28;20189;-58
2023/02/17 15:41:26;;;;;;;2.85;1.17;;;;;;;11.61;77.75;97308.06;2067717;28;20198;-58
2023/02/17 15:42:27;;;;;;;1.85;1.10;;;;;;;11.62;78.15;97307.16;2068262;28;20667;-58
2023/02/17 15:43:35;;;;;;;6.00;1.40;;;;;;;11.51;78.44;97306.69;2065627;28;20198;-58
2023/02/17 15:44:45;;;;;;;1.85;0.98;;;;;;;11.44;78.75;97300.88;2062942;28;20237;-59
2023/02/17 15:45:46;;;;;;;2.88;1.25;;;;;;;11.41;79.01;97309.69;2062652;28;20290;-58
2023/02/17 15:46:50;;;;;;;4.78;1.63;;;;;;;11.37;78.99;97302.84;2062211;28;20202;-59
2023/02/17 15:48:02;;;;;;;2.03;1.20;;;;;;;11.27;79.47;97302.34;2061133;28;20293;-58
